sensor_id;sensor_type;location;lat;lon;timestamp;pressure;altitude;pressure_sealevel;temperature;humidity
35435;BME280;21556;55.782;37.528;2023-03-04T00:01:50;98054.47;;;1.60;100.00
35435;BME280;21556;55.782;37.528;2023-03-04T00:04:16;98048.34;;;1.57;100.00
35435;BME280;21556;55.782;37.528;2023-03-04T00:06:42;98047.06;;;1.41;100.00
35435;BME280;21556;55.782;37.528;2023-03-04T00:09:08;98042.97;;;1.49;100.00
35435;BME280;21556;55.782;37.528;2023-03-04T00:11:34;98041.38;;;1.54;100.00
35435;BME280;21556;55.782;37.528;2023-03-04T00:14:00;98036.41;;;1.62;100.00
35435;BME280;21556;55.782;37.528;2023-03-04T00:16:25;98031.03;;;1.89;100.00
35435;BME280;21556;55.782;37.528;2023-03-04T00:18:55;98032.78;;;1.90;100.00
35435;BME280;21556;55.782;37.528;2023-03-04T00:21:21;98022.38;;;1.88;100.00
35435;BME280;21556;55.782;37.528;2023-03-04T00:23:47;98025.34;;;1.67;100.00
35435;BME280;21556;55.782;37.528;2023-03-04T00:26:14;98018.34;;;1.63;100.00
35435;BME280;21556;55.782;37.528;2023-03-04T00:28:41;98014.59;;;1.52;100.00
35435;BME280;21556;55.782;37.528;2023-03-04T00:31:08;98013.22;;;1.66;100.00
35435;BME280;21556;55.782;37.528;2023-03-04T00:33:34;98005.97;;;1.52;100.00
35435;BME280;21556;55.782;37.528;2023-03-04T00:36:00;98003.81;;;1.68;100.00
35435;BME280;21556;55.782;37.528;2023-03-04T00:38:27;98006.56;;;1.75;100.00
35435;BME280;21556;55.782;37.528;2023-03-04T00:40:53;98002.53;;;1.51;100.00
35435;BME280;21556;55.782;37.528;2023-03-04T00:43:20;98017.00;;;1.44;100.00
35435;BME280;21556;55.782;37.528;2023-03-04T00:45:46;98013.22;;;1.65;100.00
35435;BME280;21556;55.782;37.528;2023-03-04T00:48:13;98012.66;;;1.10;100.00
35435;BME280;21556;55.782;37.528;2023-03-04T00:50:39;98008.97;;;1.34;100.00
35435;BME280;21556;55.782;37.528;2023-03-04T00:53:05;98009.38;;;1.49;100.00
35435;BME280;21556;55.782;37.528;2023-03-04T00:55:31;98011.03;;;1.14;100.00
35435;BME280;21556;55.782;37.528;2023-03-04T00:57:56;98011.06;;;1.15;100.00
35435;BME280;21556;55.782;37.528;2023-03-04T01:00:22;98008.66;;;1.22;100.00
35435;BME280;21556;55.782;37.528;2023-03-04T01:02:49;98008.28;;;1.41;100.00
35435;BME280;21556;55.782;37.528;2023-03-04T01:05:15;98000.25;;;1.29;100.00
35435;BME280;21556;55.782;37.528;2023-03-04T01:07:41;97996.31;;;1.44;100.00
35435;BME280;21556;55.782;37.528;2023-03-04T01:10:10;98013.44;;;1.06;100.00
35435;BME280;21556;55.782;37.528;2023-03-04T01:12:37;97994.69;;;1.15;100.00
35435;BME280;21556;55.782;37.528;2023-03-04T01:15:05;98009.59;;;0.92;100.00
35435;BME280;21556;55.782;37.528;2023-03-04T01:17:31;98001.84;;;1.24;100.00
35435;BME280;21556;55.782;37.528;2023-03-04T01:19:57;97989.16;;;1.34;100.00
35435;BME280;21556;55.782;37.528;2023-03-04T01:22:23;97994.22;;;0.96;100.00
35435;BME280;21556;55.782;37.528;2023-03-04T01:24:49;97997.63;;;1.27;100.00
35435;BME280;21556;55.782;37.528;2023-03-04T01:27:15;97994.41;;;1.37;100.00
35435;BME280;21556;55.782;37.528;2023-03-04T01:29:42;97998.06;;;1.12;100.00
35435;BME280;21556;55.782;37.528;2023-03-04T01:32:08;97996.59;;;1.20;100.00
35435;BME280;21556;55.782;37.528;2023-03-04T01:34:34;97982.13;;;1.27;100.00
35435;BME280;21556;55.782;37.528;2023-03-04T01:37:03;97977.22;;;1.05;100.00
35435;BME280;21556;55.782;37.528;2023-03-04T01:39:29;97977.28;;;1.06;100.00
35435;BME280;21556;55.782;37.528;2023-03-04T01:41:55;97990.47;;;0.85;100.00
35435;BME280;21556;55.782;37.528;2023-03-04T01:44:21;97981.97;;;1.21;100.00
35435;BME280;21556;55.782;37.528;2023-03-04T01:46:49;97976.19;;;1.31;100.00
35435;BME280;21556;55.782;37.528;2023-03-04T01:49:16;97980.41;;;0.94;100.00
35435;BME280;21556;55.782;37.528;2023-03-04T01:51:46;97969.25;;;1.30;100.00
35435;BME280;21556;55.782;37.528;2023-03-04T01:54:14;97968.00;;;0.83;100.00
35435;BME280;21556;55.782;37.528;2023-03-04T01:56:43;97964.09;;;0.97;100.00
35435;BME280;21556;55.782;37.528;2023-03-04T01:59:18;97960.59;;;1.28;100.00
35435;BME280;21556;55.782;37.528;2023-03-04T02:01:50;97953.75;;;1.30;100.00
35435;BME280;21556;55.782;37.528;2023-03-04T02:04:17;97954.50;;;0.91;100.00
35435;BME280;21556;55.782;37.528;2023-03-04T02:06:45;97950.97;;;1.21;100.00
35435;BME280;21556;55.782;37.528;2023-03-04T02:09:13;97940.72;;;0.91;100.00
35435;BME280;21556;55.782;37.528;2023-03-04T02:11:39;97948.63;;;0.65;100.00
35435;BME280;21556;55.782;37.528;2023-03-04T02:14:08;97938.81;;;0.84;100.00
35435;BME280;21556;55.782;37.528;2023-03-04T02:16:35;97927.47;;;0.79;100.00
35435;BME280;21556;55.782;37.528;2023-03-04T02:19:01;97925.75;;;0.79;100.00
35435;BME280;21556;55.782;37.528;2023-03-04T02:21:31;97928.41;;;0.82;100.00
35435;BME280;21556;55.782;37.528;2023-03-04T02:26:36;97920.63;;;1.14;100.00
35435;BME280;21556;55.782;37.528;2023-03-04T02:29:04;97915.38;;;1.09;100.00
35435;BME280;21556;55.782;37.528;2023-03-04T02:31:50;97918.16;;;0.52;100.00
35435;BME280;21556;55.782;37.528;2023-03-04T02:34:22;97909.66;;;0.56;100.00
35435;BME280;21556;55.782;37.528;2023-03-04T02:36:50;97909.38;;;0.79;100.00
35435;BME280;21556;55.782;37.528;2023-03-04T02:41:49;97899.44;;;0.94;100.00
35435;BME280;21556;55.782;37.528;2023-03-04T02:44:18;97899.84;;;0.76;100.00
35435;BME280;21556;55.782;37.528;2023-03-04T02:46:45;97901.31;;;0.35;100.00
35435;BME280;21556;55.782;37.528;2023-03-04T02:49:12;97898.66;;;0.96;100.00
35435;BME280;21556;55.782;37.528;2023-03-04T02:51:38;97903.47;;;0.83;100.00
35435;BME280;21556;55.782;37.528;2023-03-04T02:54:04;97901.31;;;0.35;100.00
35435;BME280;21556;55.782;37.528;2023-03-04T02:56:44;97884.41;;;0.44;100.00
35435;BME280;21556;55.782;37.528;2023-03-04T02:59:09;97877.44;;;0.74;100.00
35435;BME280;21556;55.782;37.528;2023-03-04T03:01:35;97876.69;;;0.78;100.00
35435;BME280;21556;55.782;37.528;2023-03-04T03:04:01;97878.97;;;0.67;100.00
35435;BME280;21556;55.782;37.528;2023-03-04T03:06:27;97874.94;;;0.77;100.00
35435;BME280;21556;55.782;37.528;2023-03-04T03:08:53;97881.16;;;0.52;100.00
35435;BME280;21556;55.782;37.528;2023-03-04T03:11:19;97884.59;;;0.20;100.00
35435;BME280;21556;55.782;37.528;2023-03-04T03:13:44;97882.47;;;0.37;100.00
35435;BME280;21556;55.782;37.528;2023-03-04T03:16:11;97868.47;;;0.59;100.00
35435;BME280;21556;55.782;37.528;2023-03-04T03:18:37;97864.44;;;0.07;100.00
35435;BME280;21556;55.782;37.528;2023-03-04T03:21:04;97869.53;;;0.04;100.00
35435;BME280;21556;55.782;37.528;2023-03-04T03:23:29;97886.09;;;-0.16;100.00
35435;BME280;21556;55.782;37.528;2023-03-04T03:25:57;97883.16;;;0.00;100.00
35435;BME280;21556;55.782;37.528;2023-03-04T03:28:26;97872.56;;;0.21;100.00
35435;BME280;21556;55.782;37.528;2023-03-04T03:30:53;97869.22;;;0.25;100.00
35435;BME280;21556;55.782;37.528;2023-03-04T03:33:19;97863.63;;;0.40;100.00
35435;BME280;21556;55.782;37.528;2023-03-04T03:35:44;97854.81;;;0.32;100.00
35435;BME280;21556;55.782;37.528;2023-03-04T03:38:10;97853.16;;;0.34;100.00
35435;BME280;21556;55.782;37.528;2023-03-04T03:40:36;97855.63;;;0.31;100.00
35435;BME280;21556;55.782;37.528;2023-03-04T03:43:02;97862.50;;;0.30;100.00
35435;BME280;21556;55.782;37.528;2023-03-04T03:45:28;97851.47;;;0.36;100.00
35435;BME280;21556;55.782;37.528;2023-03-04T03:47:54;97843.91;;;0.42;100.00
35435;BME280;21556;55.782;37.528;2023-03-04T03:50:20;97845.53;;;0.38;100.00
35435;BME280;21556;55.782;37.528;2023-03-04T03:52:46;97844.69;;;-0.22;100.00
35435;BME280;21556;55.782;37.528;2023-03-04T03:55:11;97843.44;;;-0.07;100.00
35435;BME280;21556;55.782;37.528;2023-03-04T03:57:38;97840.72;;;0.19;100.00
35435;BME280;21556;55.782;37.528;2023-03-04T04:00:05;97838.41;;;-0.02;100.00
35435;BME280;21556;55.782;37.528;2023-03-04T04:02:38;97820.88;;;0.18;100.00
35435;BME280;21556;55.782;37.528;2023-03-04T04:05:05;97820.78;;;0.45;100.00
35435;BME280;21556;55.782;37.528;2023-03-04T04:07:31;97815.28;;;0.66;100.00
35435;BME280;21556;55.782;37.528;2023-03-04T04:09:57;97810.53;;;0.48;100.00
35435;BME280;21556;55.782;37.528;2023-03-04T04:12:23;97811.88;;;0.34;100.00
35435;BME280;21556;55.782;37.528;2023-03-04T04:14:49;97805.09;;;0.37;100.00
35435;BME280;21556;55.782;37.528;2023-03-04T04:17:15;97803.75;;;0.20;100.00
35435;BME280;21556;55.782;37.528;2023-03-04T04:19:40;97794.78;;;0.37;100.00
35435;BME280;21556;55.782;37.528;2023-03-04T04:22:12;97788.19;;;0.17;100.00
35435;BME280;21556;55.782;37.528;2023-03-04T04:24:38;97794.41;;;0.23;100.00
35435;BME280;21556;55.782;37.528;2023-03-04T04:27:04;97789.88;;;0.15;100.00
35435;BME280;21556;55.782;37.528;2023-03-04T04:29:30;97786.47;;;0.49;100.00
35435;BME280;21556;55.782;37.528;2023-03-04T04:31:56;97779.09;;;0.30;100.00
35435;BME280;21556;55.782;37.528;2023-03-04T04:34:23;97773.47;;;0.44;100.00
35435;BME280;21556;55.782;37.528;2023-03-04T04:36:49;97786.56;;;0.52;100.00
35435;BME280;21556;55.782;37.528;2023-03-04T04:39:15;97781.78;;;0.34;100.00
35435;BME280;21556;55.782;37.528;2023-03-04T04:41:45;97782.91;;;0.44;100.00
35435;BME280;21556;55.782;37.528;2023-03-04T04:44:12;97792.25;;;-0.23;100.00
35435;BME280;21556;55.782;37.528;2023-03-04T04:46:38;97769.59;;;0.29;100.00
35435;BME280;21556;55.782;37.528;2023-03-04T04:49:05;97769.28;;;-0.15;100.00
35435;BME280;21556;55.782;37.528;2023-03-04T04:51:32;97782.66;;;0.03;100.00
35435;BME280;21556;55.782;37.528;2023-03-04T04:53:59;97785.47;;;-0.21;100.00
35435;BME280;21556;55.782;37.528;2023-03-04T04:56:54;97779.84;;;-0.06;100.00
35435;BME280;21556;55.782;37.528;2023-03-04T04:59:20;97779.69;;;0.19;100.00
35435;BME280;21556;55.782;37.528;2023-03-04T05:01:56;97782.44;;;0.59;100.00
35435;BME280;21556;55.782;37.528;2023-03-04T05:04:31;97771.78;;;0.46;100.00
35435;BME280;21556;55.782;37.528;2023-03-04T05:06:57;97774.19;;;0.74;100.00
35435;BME280;21556;55.782;37.528;2023-03-04T05:09:35;97771.28;;;0.61;100.00
35435;BME280;21556;55.782;37.528;2023-03-04T05:12:07;97769.19;;;0.81;100.00
35435;BME280;21556;55.782;37.528;2023-03-04T05:14:53;97770.75;;;0.73;100.00
35435;BME280;21556;55.782;37.528;2023-03-04T05:17:32;97760.75;;;0.52;100.00
35435;BME280;21556;55.782;37.528;2023-03-04T05:20:17;97766.94;;;0.95;100.00
35435;BME280;21556;55.782;37.528;2023-03-04T05:22:51;97758.34;;;0.60;100.00
35435;BME280;21556;55.782;37.528;2023-03-04T05:25:30;97760.66;;;0.84;100.00
35435;BME280;21556;55.782;37.528;2023-03-04T05:28:07;97747.97;;;0.93;100.00
35435;BME280;21556;55.782;37.528;2023-03-04T05:30:44;97738.78;;;1.06;100.00
35435;BME280;21556;55.782;37.528;2023-03-04T05:33:25;97739.09;;;1.19;100.00
35435;BME280;21556;55.782;37.528;2023-03-04T05:36:34;97746.97;;;1.26;100.00
35435;BME280;21556;55.782;37.528;2023-03-04T05:39:11;97745.38;;;1.31;100.00
35435;BME280;21556;55.782;37.528;2023-03-04T05:41:52;97744.91;;;1.09;100.00
35435;BME280;21556;55.782;37.528;2023-03-04T05:44:24;97741.63;;;1.16;100.00
35435;BME280;21556;55.782;37.528;2023-03-04T05:46:50;97749.31;;;1.15;100.00
35435;BME280;21556;55.782;37.528;2023-03-04T05:49:22;97744.16;;;1.15;100.00
35435;BME280;21556;55.782;37.528;2023-03-04T05:52:01;97740.97;;;1.27;100.00
35435;BME280;21556;55.782;37.528;2023-03-04T05:54:31;97737.25;;;1.14;100.00
35435;BME280;21556;55.782;37.528;2023-03-04T05:56:59;97736.56;;;1.23;100.00
35435;BME280;21556;55.782;37.528;2023-03-04T05:59:28;97728.16;;;0.92;100.00
35435;BME280;21556;55.782;37.528;2023-03-04T06:01:59;97736.94;;;0.64;100.00
35435;BME280;21556;55.782;37.528;2023-03-04T06:04:25;97730.19;;;1.07;100.00
35435;BME280;21556;55.782;37.528;2023-03-04T06:06:51;97740.31;;;1.37;100.00
35435;BME280;21556;55.782;37.528;2023-03-04T06:09:18;97728.81;;;1.21;100.00
35435;BME280;21556;55.782;37.528;2023-03-04T06:11:48;97718.78;;;1.36;100.00
35435;BME280;21556;55.782;37.528;2023-03-04T06:14:16;97719.25;;;1.17;100.00
35435;BME280;21556;55.782;37.528;2023-03-04T06:16:46;97720.91;;;1.15;100.00
35435;BME280;21556;55.782;37.528;2023-03-04T06:19:12;97715.25;;;1.31;100.00
35435;BME280;21556;55.782;37.528;2023-03-04T06:24:35;97706.50;;;1.26;100.00
35435;BME280;21556;55.782;37.528;2023-03-04T06:27:01;97713.72;;;1.41;100.00
35435;BME280;21556;55.782;37.528;2023-03-04T06:29:32;97704.34;;;1.46;100.00
35435;BME280;21556;55.782;37.528;2023-03-04T06:34:50;97702.16;;;1.24;100.00
35435;BME280;21556;55.782;37.528;2023-03-04T06:37:22;97703.31;;;1.38;100.00
35435;BME280;21556;55.782;37.528;2023-03-04T06:39:56;97694.94;;;1.50;100.00
35435;BME280;21556;55.782;37.528;2023-03-04T06:42:23;97690.91;;;1.22;100.00
35435;BME280;21556;55.782;37.528;2023-03-04T06:44:56;97693.19;;;1.49;100.00
35435;BME280;21556;55.782;37.528;2023-03-04T06:47:29;97682.31;;;1.65;100.00
35435;BME280;21556;55.782;37.528;2023-03-04T06:50:08;97682.84;;;1.47;100.00
35435;BME280;21556;55.782;37.528;2023-03-04T06:52:38;97678.88;;;1.66;100.00
35435;BME280;21556;55.782;37.528;2023-03-04T06:55:10;97673.78;;;1.67;100.00
35435;BME280;21556;55.782;37.528;2023-03-04T06:57:39;97672.19;;;1.76;100.00
35435;BME280;21556;55.782;37.528;2023-03-04T07:00:06;97660.66;;;1.58;100.00
35435;BME280;21556;55.782;37.528;2023-03-04T07:02:36;97661.78;;;1.73;100.00
35435;BME280;21556;55.782;37.528;2023-03-04T07:05:02;97662.50;;;2.11;100.00
35435;BME280;21556;55.782;37.528;2023-03-04T07:07:29;97658.53;;;2.33;100.00
35435;BME280;21556;55.782;37.528;2023-03-04T07:10:00;97658.25;;;2.14;100.00
35435;BME280;21556;55.782;37.528;2023-03-04T07:12:32;97658.81;;;1.98;100.00
35435;BME280;21556;55.782;37.528;2023-03-04T07:14:58;97644.41;;;2.12;100.00
35435;BME280;21556;55.782;37.528;2023-03-04T07:17:30;97641.22;;;2.29;100.00
35435;BME280;21556;55.782;37.528;2023-03-04T07:20:03;97639.41;;;2.23;100.00
35435;BME280;21556;55.782;37.528;2023-03-04T07:22:39;97635.47;;;1.95;100.00
35435;BME280;21556;55.782;37.528;2023-03-04T07:25:06;97630.72;;;2.21;100.00
35435;BME280;21556;55.782;37.528;2023-03-04T07:27:34;97629.91;;;2.24;100.00
35435;BME280;21556;55.782;37.528;2023-03-04T07:30:28;97619.38;;;2.11;100.00
35435;BME280;21556;55.782;37.528;2023-03-04T07:33:33;97608.59;;;2.38;100.00
35435;BME280;21556;55.782;37.528;2023-03-04T07:36:45;97607.59;;;2.30;100.00
35435;BME280;21556;55.782;37.528;2023-03-04T07:39:12;97609.78;;;2.04;100.00
35435;BME280;21556;55.782;37.528;2023-03-04T07:41:40;97615.88;;;2.09;100.00
35435;BME280;21556;55.782;37.528;2023-03-04T07:44:07;97613.75;;;2.38;100.00
35435;BME280;21556;55.782;37.528;2023-03-04T07:46:33;97613.47;;;2.20;100.00
35435;BME280;21556;55.782;37.528;2023-03-04T07:48:59;97615.44;;;1.83;100.00
35435;BME280;21556;55.782;37.528;2023-03-04T07:51:26;97600.19;;;1.97;100.00
35435;BME280;21556;55.782;37.528;2023-03-04T07:53:55;97603.50;;;1.91;100.00
35435;BME280;21556;55.782;37.528;2023-03-04T07:56:24;97603.00;;;2.12;100.00
35435;BME280;21556;55.782;37.528;2023-03-04T07:58:50;97611.06;;;1.79;100.00
35435;BME280;21556;55.782;37.528;2023-03-04T08:01:21;97602.66;;;1.91;100.00
35435;BME280;21556;55.782;37.528;2023-03-04T08:03:48;97610.94;;;1.73;100.00
35435;BME280;21556;55.782;37.528;2023-03-04T08:06:16;97604.38;;;1.90;100.00
35435;BME280;21556;55.782;37.528;2023-03-04T08:08:42;97593.81;;;1.78;100.00
35435;BME280;21556;55.782;37.528;2023-03-04T08:11:13;97593.44;;;1.58;100.00
35435;BME280;21556;55.782;37.528;2023-03-04T08:13:39;97595.69;;;1.87;100.00
35435;BME280;21556;55.782;37.528;2023-03-04T08:16:06;97584.78;;;2.05;100.00
35435;BME280;21556;55.782;37.528;2023-03-04T08:18:32;97591.00;;;1.66;100.00
35435;BME280;21556;55.782;37.528;2023-03-04T08:20:58;97570.13;;;2.05;100.00
35435;BME280;21556;55.782;37.528;2023-03-04T08:23:24;97579.56;;;2.03;100.00
35435;BME280;21556;55.782;37.528;2023-03-04T08:25:50;97576.53;;;2.29;100.00
35435;BME280;21556;55.782;37.528;2023-03-04T08:28:16;97575.16;;;1.96;100.00
35435;BME280;21556;55.782;37.528;2023-03-04T08:30:42;97564.44;;;2.28;100.00
35435;BME280;21556;55.782;37.528;2023-03-04T08:33:09;97571.03;;;2.09;100.00
35435;BME280;21556;55.782;37.528;2023-03-04T08:35:37;97569.72;;;2.34;100.00
35435;BME280;21556;55.782;37.528;2023-03-04T08:38:04;97561.66;;;2.15;100.00
35435;BME280;21556;55.782;37.528;2023-03-04T08:40:34;97556.06;;;2.44;100.00
35435;BME280;21556;55.782;37.528;2023-03-04T08:43:00;97562.69;;;2.27;100.00
35435;BME280;21556;55.782;37.528;2023-03-04T08:45:26;97546.53;;;2.40;100.00
35435;BME280;21556;55.782;37.528;2023-03-04T08:47:52;97543.88;;;2.37;100.00
35435;BME280;21556;55.782;37.528;2023-03-04T08:50:18;97544.63;;;2.30;100.00
35435;BME280;21556;55.782;37.528;2023-03-04T08:52:44;97535.41;;;2.47;100.00
35435;BME280;21556;55.782;37.528;2023-03-04T08:55:10;97547.22;;;2.30;100.00
35435;BME280;21556;55.782;37.528;2023-03-04T08:57:36;97546.78;;;2.02;100.00
35435;BME280;21556;55.782;37.528;2023-03-04T09:00:02;97528.69;;;2.02;100.00
35435;BME280;21556;55.782;37.528;2023-03-04T09:02:30;97521.09;;;2.11;100.00
35435;BME280;21556;55.782;37.528;2023-03-04T09:05:04;97531.03;;;1.87;100.00
35435;BME280;21556;55.782;37.528;2023-03-04T09:07:30;97523.34;;;2.49;100.00
35435;BME280;21556;55.782;37.528;2023-03-04T09:10:27;97512.66;;;2.93;100.00
35435;BME280;21556;55.782;37.528;2023-03-04T09:13:17;97497.22;;;2.99;100.00
35435;BME280;21556;55.782;37.528;2023-03-04T09:15:54;97505.06;;;3.05;100.00
35435;BME280;21556;55.782;37.528;2023-03-04T09:18:45;97484.78;;;3.53;100.00
35435;BME280;21556;55.782;37.528;2023-03-04T09:21:19;97483.72;;;3.34;100.00
35435;BME280;21556;55.782;37.528;2023-03-04T09:23:55;97484.44;;;3.16;100.00
35435;BME280;21556;55.782;37.528;2023-03-04T09:26:27;97478.78;;;2.73;100.00
35435;BME280;21556;55.782;37.528;2023-03-04T09:29:06;97479.69;;;2.78;100.00
35435;BME280;21556;55.782;37.528;2023-03-04T09:31:40;97479.28;;;2.46;100.00
35435;BME280;21556;55.782;37.528;2023-03-04T09:34:14;97463.25;;;2.75;100.00
35435;BME280;21556;55.782;37.528;2023-03-04T09:36:40;97464.47;;;3.06;100.00
35435;BME280;21556;55.782;37.528;2023-03-04T09:39:12;97457.31;;;2.83;100.00
35435;BME280;21556;55.782;37.528;2023-03-04T09:41:52;97449.22;;;2.57;100.00
35435;BME280;21556;55.782;37.528;2023-03-04T09:44:26;97449.25;;;2.59;100.00
35435;BME280;21556;55.782;37.528;2023-03-04T09:46:53;97431.44;;;2.85;100.00
35435;BME280;21556;55.782;37.528;2023-03-04T09:49:26;97434.47;;;2.50;100.00
35435;BME280;21556;55.782;37.528;2023-03-04T10:03:07;97409.84;;;2.86;100.00
35435;BME280;21556;55.782;37.528;2023-03-04T10:16:55;97385.06;;;3.11;100.00
35435;BME280;21556;55.782;37.528;2023-03-04T10:22:19;97354.91;;;3.16;100.00
35435;BME280;21556;55.782;37.528;2023-03-04T10:24:52;97355.75;;;3.17;100.00
35435;BME280;21556;55.782;37.528;2023-03-04T10:27:31;97348.00;;;3.23;100.00
35435;BME280;21556;55.782;37.528;2023-03-04T10:30:00;97360.78;;;2.98;100.00
35435;BME280;21556;55.782;37.528;2023-03-04T10:32:44;97343.38;;;2.86;100.00
35435;BME280;21556;55.782;37.528;2023-03-04T10:35:11;97342.75;;;3.12;100.00
35435;BME280;21556;55.782;37.528;2023-03-04T10:38:02;97337.72;;;3.32;100.00
35435;BME280;21556;55.782;37.528;2023-03-04T10:46:47;97326.53;;;3.34;100.00
35435;BME280;21556;55.782;37.528;2023-03-04T10:49:16;97321.22;;;3.19;100.00
35435;BME280;21556;55.782;37.528;2023-03-04T10:51:48;97320.63;;;3.57;100.00
35435;BME280;21556;55.782;37.528;2023-03-04T10:54:27;97321.34;;;3.36;100.00
35435;BME280;21556;55.782;37.528;2023-03-04T10:57:14;97313.59;;;3.41;100.00
35435;BME280;21556;55.782;37.528;2023-03-04T11:02:43;97303.28;;;3.45;100.00
35435;BME280;21556;55.782;37.528;2023-03-04T11:05:23;97300.69;;;3.47;100.00
35435;BME280;21556;55.782;37.528;2023-03-04T11:07:55;97286.88;;;3.54;100.00
35435;BME280;21556;55.782;37.528;2023-03-04T11:10:39;97293.66;;;3.32;100.00
35435;BME280;21556;55.782;37.528;2023-03-04T11:13:25;97290.53;;;2.64;100.00
35435;BME280;21556;55.782;37.528;2023-03-04T11:16:02;97283.81;;;2.86;100.00
35435;BME280;21556;55.782;37.528;2023-03-04T11:21:21;97277.72;;;2.77;100.00
35435;BME280;21556;55.782;37.528;2023-03-04T11:26:25;97271.88;;;3.02;100.00
35435;BME280;21556;55.782;37.528;2023-03-04T11:28:57;97269.06;;;2.75;100.00
35435;BME280;21556;55.782;37.528;2023-03-04T11:31:32;97257.19;;;3.03;100.00
35435;BME280;21556;55.782;37.528;2023-03-04T11:34:11;97259.53;;;2.72;100.00
35435;BME280;21556;55.782;37.528;2023-03-04T11:39:21;97257.72;;;2.59;100.00
35435;BME280;21556;55.782;37.528;2023-03-04T11:42:02;97245.75;;;2.75;100.00
35435;BME280;21556;55.782;37.528;2023-03-04T11:44:32;97245.78;;;2.79;100.00
35435;BME280;21556;55.782;37.528;2023-03-04T12:06:16;97219.69;;;2.52;100.00
35435;BME280;21556;55.782;37.528;2023-03-04T12:09:08;97212.13;;;2.76;100.00
35435;BME280;21556;55.782;37.528;2023-03-04T12:16:51;97207.75;;;2.69;100.00
35435;BME280;21556;55.782;37.528;2023-03-04T12:19:29;97203.97;;;2.30;100.00
35435;BME280;21556;55.782;37.528;2023-03-04T12:22:20;97195.53;;;2.51;100.00
35435;BME280;21556;55.782;37.528;2023-03-04T12:38:41;97178.03;;;2.23;100.00
35435;BME280;21556;55.782;37.528;2023-03-04T12:44:20;97168.22;;;1.89;100.00
35435;BME280;21556;55.782;37.528;2023-03-04T12:49:44;97152.47;;;2.69;100.00
35435;BME280;21556;55.782;37.528;2023-03-04T12:52:43;97156.50;;;2.25;100.00
35435;BME280;21556;55.782;37.528;2023-03-04T12:55:18;97151.31;;;2.25;100.00
35435;BME280;21556;55.782;37.528;2023-03-04T12:57:47;97152.22;;;2.30;100.00
35435;BME280;21556;55.782;37.528;2023-03-04T13:00:24;97144.28;;;2.13;100.00
35435;BME280;21556;55.782;37.528;2023-03-04T13:10:38;97120.28;;;2.28;100.00
35435;BME280;21556;55.782;37.528;2023-03-04T13:13:04;97120.34;;;2.37;100.00
35435;BME280;21556;55.782;37.528;2023-03-04T13:15:35;97119.53;;;2.43;100.00
35435;BME280;21556;55.782;37.528;2023-03-04T13:18:29;97106.44;;;2.23;100.00
35435;BME280;21556;55.782;37.528;2023-03-04T13:23:37;97105.66;;;2.29;100.00
35435;BME280;21556;55.782;37.528;2023-03-04T13:28:44;97096.13;;;2.28;100.00
35435;BME280;21556;55.782;37.528;2023-03-04T13:36:06;97088.25;;;2.14;100.00
35435;BME280;21556;55.782;37.528;2023-03-04T13:39:00;97079.72;;;2.24;100.00
35435;BME280;21556;55.782;37.528;2023-03-04T13:41:49;97073.69;;;2.28;100.00
35435;BME280;21556;55.782;37.528;2023-03-04T13:47:14;97073.63;;;2.14;100.00
35435;BME280;21556;55.782;37.528;2023-03-04T13:49:41;97065.03;;;2.20;100.00
35435;BME280;21556;55.782;37.528;2023-03-04T13:52:38;97061.56;;;2.20;100.00
35435;BME280;21556;55.782;37.528;2023-03-04T13:55:35;97051.16;;;2.10;100.00
35435;BME280;21556;55.782;37.528;2023-03-04T13:58:22;97049.44;;;2.14;100.00
35435;BME280;21556;55.782;37.528;2023-03-04T14:00:52;97052.63;;;1.81;100.00
35435;BME280;21556;55.782;37.528;2023-03-04T14:03:27;97046.69;;;1.91;100.00
35435;BME280;21556;55.782;37.528;2023-03-04T14:08:38;97035.63;;;2.07;100.00
35435;BME280;21556;55.782;37.528;2023-03-04T14:11:04;97036.00;;;1.51;100.00
35435;BME280;21556;55.782;37.528;2023-03-04T14:13:30;97028.69;;;2.02;100.00
35435;BME280;21556;55.782;37.528;2023-03-04T14:15:57;97030.25;;;1.80;100.00
35435;BME280;21556;55.782;37.528;2023-03-04T14:18:24;97014.88;;;2.00;100.00
35435;BME280;21556;55.782;37.528;2023-03-04T14:20:50;97020.88;;;1.94;100.00
35435;BME280;21556;55.782;37.528;2023-03-04T14:23:36;97014.03;;;2.02;100.00
35435;BME280;21556;55.782;37.528;2023-03-04T14:26:08;97014.06;;;2.07;100.00
35435;BME280;21556;55.782;37.528;2023-03-04T14:28:43;97015.00;;;2.16;100.00
35435;BME280;21556;55.782;37.528;2023-03-04T14:31:18;97004.50;;;1.95;100.00
35435;BME280;21556;55.782;37.528;2023-03-04T14:33:51;97009.00;;;2.22;100.00
35435;BME280;21556;55.782;37.528;2023-03-04T14:36:21;97003.72;;;2.10;100.00
35435;BME280;21556;55.782;37.528;2023-03-04T14:38:58;96995.16;;;2.15;100.00
35435;BME280;21556;55.782;37.528;2023-03-04T14:41:29;97002.16;;;2.32;100.00
35435;BME280;21556;55.782;37.528;2023-03-04T14:46:57;96994.44;;;2.36;100.00
35435;BME280;21556;55.782;37.528;2023-03-04T14:49:52;96993.53;;;2.31;100.00
35435;BME280;21556;55.782;37.528;2023-03-04T14:55:58;96981.47;;;2.29;100.00
35435;BME280;21556;55.782;37.528;2023-03-04T14:58:34;96982.38;;;2.40;100.00
35435;BME280;21556;55.782;37.528;2023-03-04T15:01:16;96982.94;;;1.95;100.00
35435;BME280;21556;55.782;37.528;2023-03-04T15:06:21;96978.75;;;2.07;100.00
35435;BME280;21556;55.782;37.528;2023-03-04T15:08:59;96968.50;;;2.30;100.00
35435;BME280;21556;55.782;37.528;2023-03-04T15:11:31;96971.88;;;2.11;100.00
35435;BME280;21556;55.782;37.528;2023-03-04T15:14:01;96957.28;;;2.28;100.00
35435;BME280;21556;55.782;37.528;2023-03-04T15:16:50;96958.19;;;2.29;100.00
35435;BME280;21556;55.782;37.528;2023-03-04T15:19:28;96946.94;;;2.27;100.00
35435;BME280;21556;55.782;37.528;2023-03-04T15:22:08;96946.09;;;2.35;100.00